sensor_id;sensor_type;location;lat;lon;timestamp;pressure;altitude;pressure_sealevel;temperature;humidity
74621;BME280;64861;47.546;19.254;2023-05-07T00:01:26;99238.84;;;21.90;53.32
74621;BME280;64861;47.546;19.254;2023-05-07T00:03:51;99241.69;;;21.89;53.53
74621;BME280;64861;47.546;19.254;2023-05-07T00:06:17;99241.03;;;21.87;53.56
74621;BME280;64861;47.546;19.254;2023-05-07T00:08:42;99242.69;;;21.88;53.52
74621;BME280;64861;47.546;19.254;2023-05-07T00:11:07;99239.38;;;21.86;53.49
74621;BME280;64861;47.546;19.254;2023-05-07T00:13:33;99240.56;;;21.83;53.65
74621;BME280;64861;47.546;19.254;2023-05-07T00:16:03;99237.22;;;21.81;53.55
74621;BME280;64861;47.546;19.254;2023-05-07T00:18:29;99239.88;;;21.81;53.58
74621;BME280;64861;47.546;19.254;2023-05-07T00:20:55;99243.56;;;21.80;53.73
74621;BME280;64861;47.546;19.254;2023-05-07T00:23:21;99241.91;;;21.79;53.65
74621;BME280;64861;47.546;19.254;2023-05-07T00:25:47;99243.56;;;21.80;53.48
74621;BME280;64861;47.546;19.254;2023-05-07T00:28:12;99247.22;;;21.79;53.61
74621;BME280;64861;47.546;19.254;2023-05-07T00:30:37;99243.88;;;21.77;53.66
74621;BME280;64861;47.546;19.254;2023-05-07T00:33:03;99250.22;;;21.76;53.75
74621;BME280;64861;47.546;19.254;2023-05-07T00:35:29;99243.22;;;21.75;53.70
74621;BME280;64861;47.546;19.254;2023-05-07T00:37:55;99246.88;;;21.74;53.82
74621;BME280;64861;47.546;19.254;2023-05-07T00:40:20;99246.22;;;21.72;53.87
74621;BME280;64861;47.546;19.254;2023-05-07T00:42:46;99242.59;;;21.73;53.88
74621;BME280;64861;47.546;19.254;2023-05-07T00:45:20;99244.41;;;21.72;53.69
74621;BME280;64861;47.546;19.254;2023-05-07T00:47:46;99243.91;;;21.69;53.88
74621;BME280;64861;47.546;19.254;2023-05-07T00:50:12;99235.91;;;21.69;53.76
74621;BME280;64861;47.546;19.254;2023-05-07T00:52:38;99241.09;;;21.70;53.85
74621;BME280;64861;47.546;19.254;2023-05-07T00:55:05;99244.91;;;21.68;53.81
74621;BME280;64861;47.546;19.254;2023-05-07T00:57:39;99248.72;;;21.65;53.85
74621;BME280;64861;47.546;19.254;2023-05-07T01:00:06;99251.38;;;21.65;53.87
74621;BME280;64861;47.546;19.254;2023-05-07T01:02:32;99245.75;;;21.60;54.01
74621;BME280;64861;47.546;19.254;2023-05-07T01:05:00;99243.94;;;21.61;53.96
74621;BME280;64861;47.546;19.254;2023-05-07T01:07:26;99246.78;;;21.59;54.09
74621;BME280;64861;47.546;19.254;2023-05-07T01:09:52;99242.63;;;21.56;54.14
74621;BME280;64861;47.546;19.254;2023-05-07T01:12:19;99240.78;;;21.57;54.17
74621;BME280;64861;47.546;19.254;2023-05-07T01:14:44;99252.44;;;21.56;54.22
74621;BME280;64861;47.546;19.254;2023-05-07T01:17:10;99241.78;;;21.56;54.01
74621;BME280;64861;47.546;19.254;2023-05-07T01:19:36;99249.94;;;21.54;54.28
74621;BME280;64861;47.546;19.254;2023-05-07T01:22:04;99249.09;;;21.54;54.11
74621;BME280;64861;47.546;19.254;2023-05-07T01:24:32;99252.78;;;21.53;54.09
74621;BME280;64861;47.546;19.254;2023-05-07T01:26:58;99250.09;;;21.53;54.24
74621;BME280;64861;47.546;19.254;2023-05-07T01:29:23;99244.13;;;21.51;54.30
74621;BME280;64861;47.546;19.254;2023-05-07T01:31:50;99246.78;;;21.51;54.32
74621;BME280;64861;47.546;19.254;2023-05-07T01:34:17;99246.09;;;21.49;54.27
74621;BME280;64861;47.546;19.254;2023-05-07T01:36:44;99254.09;;;21.49;54.20
74621;BME280;64861;47.546;19.254;2023-05-07T01:39:10;99250.59;;;21.48;54.38
74621;BME280;64861;47.546;19.254;2023-05-07T01:41:36;99251.94;;;21.44;54.72
74621;BME280;64861;47.546;19.254;2023-05-07T01:44:03;99250.09;;;21.45;54.51
74621;BME280;64861;47.546;19.254;2023-05-07T01:46:30;99255.28;;;21.46;54.48
74621;BME280;64861;47.546;19.254;2023-05-07T01:48:56;99251.78;;;21.46;54.45
74621;BME280;64861;47.546;19.254;2023-05-07T01:51:22;99255.59;;;21.43;54.40
74621;BME280;64861;47.546;19.254;2023-05-07T01:53:48;99251.13;;;21.44;54.45
74621;BME280;64861;47.546;19.254;2023-05-07T01:56:17;99248.59;;;21.42;54.45
74621;BME280;64861;47.546;19.254;2023-05-07T01:58:47;99248.78;;;21.41;54.55
74621;BME280;64861;47.546;19.254;2023-05-07T02:01:13;99247.13;;;21.40;54.62
74621;BME280;64861;47.546;19.254;2023-05-07T02:03:39;99248.13;;;21.39;54.62
74621;BME280;64861;47.546;19.254;2023-05-07T02:06:04;99239.31;;;21.38;54.59
74621;BME280;64861;47.546;19.254;2023-05-07T02:08:30;99235.16;;;21.35;54.67
74621;BME280;64861;47.546;19.254;2023-05-07T02:10:56;99234.19;;;21.37;54.71
74621;BME280;64861;47.546;19.254;2023-05-07T02:13:21;99236.16;;;21.34;54.68
74621;BME280;64861;47.546;19.254;2023-05-07T02:15:48;99221.88;;;21.35;54.73
74621;BME280;64861;47.546;19.254;2023-05-07T02:18:16;99235.66;;;21.31;54.71
74621;BME280;64861;47.546;19.254;2023-05-07T02:20:43;99226.66;;;21.32;54.78
74621;BME280;64861;47.546;19.254;2023-05-07T02:23:08;99219.53;;;21.32;54.81
74621;BME280;64861;47.546;19.254;2023-05-07T02:25:33;99219.69;;;21.31;54.74
74621;BME280;64861;47.546;19.254;2023-05-07T02:27:59;99221.88;;;21.27;54.79
74621;BME280;64861;47.546;19.254;2023-05-07T02:30:25;99219.41;;;21.26;54.79
74621;BME280;64861;47.546;19.254;2023-05-07T02:32:51;99217.06;;;21.23;54.98
74621;BME280;64861;47.546;19.254;2023-05-07T02:35:16;99218.72;;;21.24;55.01
74621;BME280;64861;47.546;19.254;2023-05-07T02:37:42;99225.69;;;21.25;54.86
74621;BME280;64861;47.546;19.254;2023-05-07T02:40:08;99217.41;;;21.20;55.06
74621;BME280;64861;47.546;19.254;2023-05-07T02:42:33;99225.03;;;21.23;54.80
74621;BME280;64861;47.546;19.254;2023-05-07T02:44:59;99229.88;;;21.19;54.93
74621;BME280;64861;47.546;19.254;2023-05-07T02:47:25;99227.03;;;21.21;54.96
74621;BME280;64861;47.546;19.254;2023-05-07T02:49:53;99229.00;;;21.19;54.98
74621;BME280;64861;47.546;19.254;2023-05-07T02:52:19;99224.03;;;21.16;54.97
74621;BME280;64861;47.546;19.254;2023-05-07T02:54:44;99237.31;;;21.16;55.06
74621;BME280;64861;47.546;19.254;2023-05-07T02:57:10;99237.31;;;21.16;55.08
74621;BME280;64861;47.546;19.254;2023-05-07T02:59:36;99235.84;;;21.13;55.29
74621;BME280;64861;47.546;19.254;2023-05-07T03:02:01;99238.50;;;21.13;55.18
74621;BME280;64861;47.546;19.254;2023-05-07T03:04:27;99238.00;;;21.09;55.30
74621;BME280;64861;47.546;19.254;2023-05-07T03:06:52;99229.03;;;21.10;55.21
74621;BME280;64861;47.546;19.254;2023-05-07T03:09:17;99227.53;;;21.08;55.31
74621;BME280;64861;47.546;19.254;2023-05-07T03:11:43;99233.84;;;21.07;55.26
74621;BME280;64861;47.546;19.254;2023-05-07T03:14:08;99235.50;;;21.08;55.21
74621;BME280;64861;47.546;19.254;2023-05-07T03:16:34;99231.34;;;21.05;55.28
74621;BME280;64861;47.546;19.254;2023-05-07T03:19:00;99229.88;;;21.03;55.47
74621;BME280;64861;47.546;19.254;2023-05-07T03:21:26;99233.34;;;21.03;55.37
74621;BME280;64861;47.546;19.254;2023-05-07T03:23:51;99235.34;;;21.01;55.49
74621;BME280;64861;47.546;19.254;2023-05-07T03:26:17;99227.22;;;21.03;55.50
74621;BME280;64861;47.546;19.254;2023-05-07T03:28:42;99233.84;;;20.99;55.36
74621;BME280;64861;47.546;19.254;2023-05-07T03:31:08;99236.34;;;21.00;55.33
74621;BME280;64861;47.546;19.254;2023-05-07T03:33:33;99240.16;;;20.98;55.56
74621;BME280;64861;47.546;19.254;2023-05-07T03:36:00;99244.31;;;21.00;55.36
74621;BME280;64861;47.546;19.254;2023-05-07T03:38:26;99233.00;;;20.98;55.46
74621;BME280;64861;47.546;19.254;2023-05-07T03:40:51;99243.00;;;20.96;55.71
74621;BME280;64861;47.546;19.254;2023-05-07T03:43:17;99243.13;;;20.95;55.65
74621;BME280;64861;47.546;19.254;2023-05-07T03:45:42;99239.47;;;20.96;55.56
74621;BME280;64861;47.546;19.254;2023-05-07T03:48:07;99231.88;;;20.93;55.65
74621;BME280;64861;47.546;19.254;2023-05-07T03:50:33;99236.81;;;20.96;55.64
74621;BME280;64861;47.546;19.254;2023-05-07T03:52:58;99233.53;;;20.94;55.48
74621;BME280;64861;47.546;19.254;2023-05-07T03:55:24;99238.84;;;20.94;55.72
74621;BME280;64861;47.546;19.254;2023-05-07T03:57:50;99234.16;;;20.96;55.52
74621;BME280;64861;47.546;19.254;2023-05-07T04:00:15;99244.16;;;20.94;55.56
74621;BME280;64861;47.546;19.254;2023-05-07T04:02:41;99238.84;;;20.94;55.53
74621;BME280;64861;47.546;19.254;2023-05-07T04:05:07;99245.31;;;20.91;55.65
74621;BME280;64861;47.546;19.254;2023-05-07T04:07:33;99243.66;;;20.90;55.74
74621;BME280;64861;47.546;19.254;2023-05-07T04:09:58;99238.16;;;20.92;55.65
74621;BME280;64861;47.546;19.254;2023-05-07T04:12:23;99239.16;;;20.91;55.79
74621;BME280;64861;47.546;19.254;2023-05-07T04:14:49;99240.81;;;20.92;55.67
74621;BME280;64861;47.546;19.254;2023-05-07T04:17:15;99246.44;;;20.88;55.82
74621;BME280;64861;47.546;19.254;2023-05-07T04:19:40;99249.78;;;20.91;55.63
74621;BME280;64861;47.546;19.254;2023-05-07T04:22:10;99245.31;;;20.91;55.76
74621;BME280;64861;47.546;19.254;2023-05-07T04:24:36;99246.81;;;20.94;55.63
74621;BME280;64861;47.546;19.254;2023-05-07T04:27:01;99244.78;;;20.96;55.65
74621;BME280;64861;47.546;19.254;2023-05-07T04:29:27;99252.94;;;20.94;55.86
74621;BME280;64861;47.546;19.254;2023-05-07T04:31:53;99254.78;;;20.94;55.73
74621;BME280;64861;47.546;19.254;2023-05-07T04:34:20;99256.41;;;20.95;55.75
74621;BME280;64861;47.546;19.254;2023-05-07T04:36:46;99264.25;;;20.96;55.71
74621;BME280;64861;47.546;19.254;2023-05-07T04:39:13;99265.91;;;20.97;55.75
74621;BME280;64861;47.546;19.254;2023-05-07T04:41:38;99272.03;;;20.98;55.63
74621;BME280;64861;47.546;19.254;2023-05-07T04:44:04;99270.88;;;21.00;55.71
74621;BME280;64861;47.546;19.254;2023-05-07T04:46:30;99258.94;;;20.96;55.70
74621;BME280;64861;47.546;19.254;2023-05-07T04:48:55;99272.19;;;21.04;55.56
74621;BME280;64861;47.546;19.254;2023-05-07T04:51:21;99271.19;;;21.05;55.69
74621;BME280;64861;47.546;19.254;2023-05-07T04:53:46;99269.22;;;21.07;55.67
74621;BME280;64861;47.546;19.254;2023-05-07T04:56:12;99266.72;;;21.14;55.30
74621;BME280;64861;47.546;19.254;2023-05-07T04:58:37;99272.88;;;21.15;55.34
74621;BME280;64861;47.546;19.254;2023-05-07T05:01:03;99275.03;;;21.19;55.35
74621;BME280;64861;47.546;19.254;2023-05-07T05:03:28;99276.38;;;21.23;54.92
74621;BME280;64861;47.546;19.254;2023-05-07T05:05:55;99273.84;;;21.22;55.05
74621;BME280;64861;47.546;19.254;2023-05-07T05:08:20;99276.50;;;21.22;55.26
74621;BME280;64861;47.546;19.254;2023-05-07T05:10:46;99276.84;;;21.19;55.32
74621;BME280;64861;47.546;19.254;2023-05-07T05:13:13;99276.69;;;21.20;55.46
74621;BME280;64861;47.546;19.254;2023-05-07T05:15:39;99273.53;;;21.25;55.23
74621;BME280;64861;47.546;19.254;2023-05-07T05:18:04;99273.25;;;21.36;54.84
74621;BME280;64861;47.546;19.254;2023-05-07T05:20:30;99277.69;;;21.52;54.57
74621;BME280;64861;47.546;19.254;2023-05-07T05:22:56;99278.84;;;21.57;54.24
74621;BME280;64861;47.546;19.254;2023-05-07T05:25:21;99286.97;;;21.64;54.15
74621;BME280;64861;47.546;19.254;2023-05-07T05:27:46;99289.13;;;21.69;53.87
74621;BME280;64861;47.546;19.254;2023-05-07T05:30:12;99301.25;;;21.79;53.60
74621;BME280;64861;47.546;19.254;2023-05-07T05:32:38;99296.22;;;21.85;53.48
74621;BME280;64861;47.546;19.254;2023-05-07T05:35:04;99296.22;;;21.93;53.27
74621;BME280;64861;47.546;19.254;2023-05-07T05:37:29;99293.88;;;21.98;53.04
74621;BME280;64861;47.546;19.254;2023-05-07T05:39:55;99296.00;;;22.11;52.71
74621;BME280;64861;47.546;19.254;2023-05-07T05:42:21;99288.38;;;22.16;52.71
74621;BME280;64861;47.546;19.254;2023-05-07T05:44:46;99288.03;;;22.19;52.62
74621;BME280;64861;47.546;19.254;2023-05-07T05:47:12;99283.81;;;22.24;52.70
74621;BME280;64861;47.546;19.254;2023-05-07T05:49:37;99285.28;;;22.35;52.43
74621;BME280;64861;47.546;19.254;2023-05-07T05:52:03;99278.25;;;22.42;52.28
74621;BME280;64861;47.546;19.254;2023-05-07T05:54:29;99270.28;;;22.42;52.21
74621;BME280;64861;47.546;19.254;2023-05-07T05:56:54;99283.25;;;22.45;52.32
74621;BME280;64861;47.546;19.254;2023-05-07T05:59:20;99278.25;;;22.42;52.51
74621;BME280;64861;47.546;19.254;2023-05-07T06:01:45;99285.03;;;22.45;52.38
74621;BME280;64861;47.546;19.254;2023-05-07T06:04:10;99285.72;;;22.47;52.36
74621;BME280;64861;47.546;19.254;2023-05-07T06:06:36;99283.53;;;22.50;52.36
74621;BME280;64861;47.546;19.254;2023-05-07T06:09:01;99283.88;;;22.47;52.47
74621;BME280;64861;47.546;19.254;2023-05-07T06:11:27;99281.88;;;22.49;52.26
74621;BME280;64861;47.546;19.254;2023-05-07T06:13:52;99276.72;;;22.48;52.24
74621;BME280;64861;47.546;19.254;2023-05-07T06:16:18;99278.38;;;22.49;52.22
74621;BME280;64861;47.546;19.254;2023-05-07T06:18:45;99270.69;;;22.54;52.14
74621;BME280;64861;47.546;19.254;2023-05-07T06:21:12;99271.16;;;22.58;52.00
74621;BME280;64861;47.546;19.254;2023-05-07T06:23:38;99274.25;;;22.69;51.96
74621;BME280;64861;47.546;19.254;2023-05-07T06:26:06;99272.06;;;22.73;51.67
74621;BME280;64861;47.546;19.254;2023-05-07T06:28:31;99268.88;;;22.78;51.59
74621;BME280;64861;47.546;19.254;2023-05-07T06:31:21;99276.00;;;22.85;51.45
74621;BME280;64861;47.546;19.254;2023-05-07T06:33:46;99273.28;;;22.93;51.30
74621;BME280;64861;47.546;19.254;2023-05-07T06:36:12;99269.91;;;23.00;51.11
74621;BME280;64861;47.546;19.254;2023-05-07T06:38:38;99279.22;;;23.04;51.04
74621;BME280;64861;47.546;19.254;2023-05-07T06:41:03;99278.84;;;23.07;50.96
74621;BME280;64861;47.546;19.254;2023-05-07T06:43:29;99282.81;;;23.11;50.91
74621;BME280;64861;47.546;19.254;2023-05-07T06:45:55;99277.94;;;23.14;50.69
74621;BME280;64861;47.546;19.254;2023-05-07T06:48:20;99283.94;;;23.16;50.72
74621;BME280;64861;47.546;19.254;2023-05-07T06:50:45;99285.44;;;23.19;50.80
74621;BME280;64861;47.546;19.254;2023-05-07T06:53:11;99284.34;;;23.28;50.62
74621;BME280;64861;47.546;19.254;2023-05-07T06:55:36;99279.84;;;23.29;50.56
74621;BME280;64861;47.546;19.254;2023-05-07T06:58:03;99278.28;;;23.34;50.40
74621;BME280;64861;47.546;19.254;2023-05-07T07:00:29;99286.94;;;23.36;50.40
74621;BME280;64861;47.546;19.254;2023-05-07T07:02:55;99282.53;;;23.43;50.20
74621;BME280;64861;47.546;19.254;2023-05-07T07:05:21;99289.53;;;23.44;50.10
74621;BME280;64861;47.546;19.254;2023-05-07T07:07:46;99286.88;;;23.44;50.00
74621;BME280;64861;47.546;19.254;2023-05-07T07:10:21;99286.50;;;23.48;50.15
74621;BME280;64861;47.546;19.254;2023-05-07T07:12:48;99279.81;;;23.52;50.06
74621;BME280;64861;47.546;19.254;2023-05-07T07:15:14;99287.91;;;23.58;49.84
74621;BME280;64861;47.546;19.254;2023-05-07T07:17:39;99295.91;;;23.58;49.96
74621;BME280;64861;47.546;19.254;2023-05-07T07:20:05;99295.69;;;23.68;49.89
74621;BME280;64861;47.546;19.254;2023-05-07T07:22:31;99294.81;;;23.67;49.78
74621;BME280;64861;47.546;19.254;2023-05-07T07:24:56;99298.84;;;23.63;49.89
74621;BME280;64861;47.546;19.254;2023-05-07T07:27:22;99296.28;;;23.55;50.24
74621;BME280;64861;47.546;19.254;2023-05-07T07:29:47;99298.03;;;23.63;49.84
74621;BME280;64861;47.546;19.254;2023-05-07T07:32:13;99293.88;;;23.60;50.01
74621;BME280;64861;47.546;19.254;2023-05-07T07:34:38;99295.81;;;23.66;50.00
74621;BME280;64861;47.546;19.254;2023-05-07T07:37:03;99296.50;;;23.68;49.82
74621;BME280;64861;47.546;19.254;2023-05-07T07:39:32;99297.53;;;23.82;49.70
74621;BME280;64861;47.546;19.254;2023-05-07T07:41:57;99308.75;;;23.78;49.67
74621;BME280;64861;47.546;19.254;2023-05-07T07:44:23;99302.41;;;23.79;49.72
74621;BME280;64861;47.546;19.254;2023-05-07T07:46:48;99299.53;;;23.80;49.73
74621;BME280;64861;47.546;19.254;2023-05-07T07:49:14;99297.25;;;23.77;49.75
74621;BME280;64861;47.546;19.254;2023-05-07T07:51:40;99303.78;;;23.75;49.79
74621;BME280;64861;47.546;19.254;2023-05-07T07:54:05;99306.69;;;23.65;50.02
74621;BME280;64861;47.546;19.254;2023-05-07T07:56:32;99299.66;;;23.64;49.97
74621;BME280;64861;47.546;19.254;2023-05-07T07:58:58;99311.53;;;23.84;49.57
74621;BME280;64861;47.546;19.254;2023-05-07T08:01:24;99310.66;;;23.84;49.59
74621;BME280;64861;47.546;19.254;2023-05-07T08:03:50;99313.06;;;23.94;49.37
74621;BME280;64861;47.546;19.254;2023-05-07T08:06:15;99312.44;;;23.91;49.39
74621;BME280;64861;47.546;19.254;2023-05-07T08:08:41;99307.38;;;23.97;49.34
74621;BME280;64861;47.546;19.254;2023-05-07T08:11:06;99305.16;;;24.00;49.16
74621;BME280;64861;47.546;19.254;2023-05-07T08:13:32;99307.84;;;24.15;48.83
74621;BME280;64861;47.546;19.254;2023-05-07T08:15:57;99317.88;;;23.98;49.17
74621;BME280;64861;47.546;19.254;2023-05-07T08:18:23;99309.94;;;23.75;49.67
74621;BME280;64861;47.546;19.254;2023-05-07T08:20:50;99315.78;;;23.56;50.20
74621;BME280;64861;47.546;19.254;2023-05-07T08:23:15;99318.22;;;23.42;50.54
74621;BME280;64861;47.546;19.254;2023-05-07T08:25:41;99314.78;;;23.34;50.76
74621;BME280;64861;47.546;19.254;2023-05-07T08:28:08;99320.94;;;23.34;50.85
74621;BME280;64861;47.546;19.254;2023-05-07T08:30:33;99317.28;;;23.35;50.74
74621;BME280;64861;47.546;19.254;2023-05-07T08:33:00;99317.22;;;23.20;51.05
74621;BME280;64861;47.546;19.254;2023-05-07T08:35:25;99319.66;;;23.07;51.42
74621;BME280;64861;47.546;19.254;2023-05-07T08:37:52;99313.59;;;22.98;51.62
74621;BME280;64861;47.546;19.254;2023-05-07T08:40:18;99305.59;;;22.90;51.86
74621;BME280;64861;47.546;19.254;2023-05-07T08:42:44;99315.16;;;22.85;52.06
74621;BME280;64861;47.546;19.254;2023-05-07T08:45:10;99309.97;;;22.83;52.07
74621;BME280;64861;47.546;19.254;2023-05-07T08:47:42;99309.97;;;22.83;52.13
74621;BME280;64861;47.546;19.254;2023-05-07T08:50:10;99303.69;;;22.76;52.23
74621;BME280;64861;47.546;19.254;2023-05-07T08:52:36;99305.88;;;22.72;52.40
74621;BME280;64861;47.546;19.254;2023-05-07T08:55:02;99306.91;;;22.71;52.38
74621;BME280;64861;47.546;19.254;2023-05-07T08:57:28;99307.72;;;22.72;52.41
74621;BME280;64861;47.546;19.254;2023-05-07T08:59:54;99310.50;;;22.79;52.21
74621;BME280;64861;47.546;19.254;2023-05-07T09:02:19;99310.00;;;23.06;51.54
74621;BME280;64861;47.546;19.254;2023-05-07T09:04:45;99302.28;;;23.34;50.71
74621;BME280;64861;47.546;19.254;2023-05-07T09:07:10;99307.25;;;23.37;50.65
74621;BME280;64861;47.546;19.254;2023-05-07T09:09:37;99308.97;;;23.15;51.18
74621;BME280;64861;47.546;19.254;2023-05-07T09:12:02;99313.59;;;22.98;51.51
74621;BME280;64861;47.546;19.254;2023-05-07T09:14:29;99305.66;;;22.82;51.88
74621;BME280;64861;47.546;19.254;2023-05-07T09:16:56;99309.16;;;22.83;51.90
74621;BME280;64861;47.546;19.254;2023-05-07T09:19:25;99311.88;;;23.43;50.59
74621;BME280;64861;47.546;19.254;2023-05-07T09:22:03;99309.75;;;25.80;45.30
74621;BME280;64861;47.546;19.254;2023-05-07T09:24:29;99312.00;;;25.26;45.95
74621;BME280;64861;47.546;19.254;2023-05-07T09:26:59;99318.06;;;26.19;44.06
74621;BME280;64861;47.546;19.254;2023-05-07T09:29:26;99307.38;;;26.81;42.49
74621;BME280;64861;47.546;19.254;2023-05-07T09:31:54;99316.31;;;27.61;40.89
74621;BME280;64861;47.546;19.254;2023-05-07T09:34:20;99306.81;;;27.98;40.26
74621;BME280;64861;47.546;19.254;2023-05-07T09:36:45;99302.28;;;27.85;40.42
74621;BME280;64861;47.546;19.254;2023-05-07T09:39:11;99298.53;;;28.00;40.02
74621;BME280;64861;47.546;19.254;2023-05-07T09:41:46;99292.50;;;28.11;39.79
74621;BME280;64861;47.546;19.254;2023-05-07T09:44:13;99299.16;;;28.02;39.74
74621;BME280;64861;47.546;19.254;2023-05-07T09:46:42;99289.44;;;26.94;41.67
74621;BME280;64861;47.546;19.254;2023-05-07T09:49:11;99287.47;;;25.23;45.51
74621;BME280;64861;47.546;19.254;2023-05-07T09:51:47;99282.41;;;24.49;47.39
74621;BME280;64861;47.546;19.254;2023-05-07T09:54:14;99287.50;;;23.99;48.53
74621;BME280;64861;47.546;19.254;2023-05-07T09:56:40;99301.84;;;23.68;49.38
74621;BME280;64861;47.546;19.254;2023-05-07T09:59:08;99295.44;;;23.55;49.82
74621;BME280;64861;47.546;19.254;2023-05-07T10:01:36;99306.06;;;23.40;50.29
74621;BME280;64861;47.546;19.254;2023-05-07T10:04:02;99296.66;;;23.29;50.49
74621;BME280;64861;47.546;19.254;2023-05-07T10:06:34;99301.66;;;23.32;50.43
74621;BME280;64861;47.546;19.254;2023-05-07T10:09:01;99297.25;;;23.39;50.28
74621;BME280;64861;47.546;19.254;2023-05-07T10:11:27;99300.03;;;23.46;50.07
74621;BME280;64861;47.546;19.254;2023-05-07T10:13:54;99296.53;;;23.45;50.12
74621;BME280;64861;47.546;19.254;2023-05-07T10:16:21;99296.00;;;23.27;50.63
74621;BME280;64861;47.546;19.254;2023-05-07T10:18:47;99305.47;;;23.15;50.99
74621;BME280;64861;47.546;19.254;2023-05-07T10:21:17;99304.88;;;23.05;51.14
74621;BME280;64861;47.546;19.254;2023-05-07T10:23:49;99298.41;;;22.91;51.58
74621;BME280;64861;47.546;19.254;2023-05-07T10:26:15;99302.44;;;22.87;51.75
74621;BME280;64861;47.546;19.254;2023-05-07T10:28:45;99309.31;;;22.81;51.87
74621;BME280;64861;47.546;19.254;2023-05-07T10:34:18;99301.38;;;22.73;52.00
74621;BME280;64861;47.546;19.254;2023-05-07T10:36:47;99305.22;;;22.70;52.10
74621;BME280;64861;47.546;19.254;2023-05-07T10:39:13;99302.09;;;22.67;52.30
74621;BME280;64861;47.546;19.254;2023-05-07T10:44:04;99305.63;;;22.59;52.52
74621;BME280;64861;47.546;19.254;2023-05-07T10:46:31;99305.78;;;22.58;52.50
74621;BME280;64861;47.546;19.254;2023-05-07T10:51:30;99309.81;;;22.54;52.61
74621;BME280;64861;47.546;19.254;2023-05-07T10:56:43;99305.16;;;22.56;52.65
74621;BME280;64861;47.546;19.254;2023-05-07T11:01:56;99328.59;;;22.60;52.37
74621;BME280;64861;47.546;19.254;2023-05-07T11:04:23;99318.16;;;22.50;52.61
74621;BME280;64861;47.546;19.254;2023-05-07T11:15:07;99320.06;;;22.34;53.11
74621;BME280;64861;47.546;19.254;2023-05-07T11:17:34;99322.56;;;22.35;53.23
74621;BME280;64861;47.546;19.254;2023-05-07T11:20:01;99317.25;;;22.35;53.12
74621;BME280;64861;47.546;19.254;2023-05-07T11:25:05;99301.34;;;22.50;52.69
74621;BME280;64861;47.546;19.254;2023-05-07T11:27:31;99307.94;;;22.62;52.36
74621;BME280;64861;47.546;19.254;2023-05-07T11:29:57;99306.66;;;22.81;51.88
74621;BME280;64861;47.546;19.254;2023-05-07T11:32:30;99304.47;;;22.85;51.81
74621;BME280;64861;47.546;19.254;2023-05-07T11:34:58;99308.59;;;22.87;51.72
74621;BME280;64861;47.546;19.254;2023-05-07T11:37:25;99305.44;;;22.92;51.56
74621;BME280;64861;47.546;19.254;2023-05-07T11:40:05;99308.59;;;22.87;51.63
74621;BME280;64861;47.546;19.254;2023-05-07T11:42:37;99305.31;;;22.85;51.70
74621;BME280;64861;47.546;19.254;2023-05-07T11:45:03;99307.31;;;22.83;51.77
74621;BME280;64861;47.546;19.254;2023-05-07T11:47:32;99301.84;;;22.77;52.01
74621;BME280;64861;47.546;19.254;2023-05-07T11:50:04;99308.00;;;22.77;51.87
74621;BME280;64861;47.546;19.254;2023-05-07T11:52:30;99301.97;;;22.83;51.82
74621;BME280;64861;47.546;19.254;2023-05-07T11:54:57;99295.81;;;22.83;51.79
74621;BME280;64861;47.546;19.254;2023-05-07T11:57:24;99297.66;;;22.82;51.75
74621;BME280;64861;47.546;19.254;2023-05-07T11:59:57;99298.66;;;22.81;51.70
74621;BME280;64861;47.546;19.254;2023-05-07T12:02:23;99295.22;;;22.72;51.98
74621;BME280;64861;47.546;19.254;2023-05-07T12:04:50;99291.41;;;22.67;52.13
74621;BME280;64861;47.546;19.254;2023-05-07T12:07:16;99291.50;;;22.59;52.44
74621;BME280;64861;47.546;19.254;2023-05-07T12:09:44;99294.38;;;22.49;52.68
74621;BME280;64861;47.546;19.254;2023-05-07T12:12:09;99305.03;;;22.41;52.96
74621;BME280;64861;47.546;19.254;2023-05-07T12:14:42;99305.72;;;22.35;53.16
74621;BME280;64861;47.546;19.254;2023-05-07T12:17:09;99293.13;;;22.28;53.38
74621;BME280;64861;47.546;19.254;2023-05-07T12:19:35;99299.63;;;22.26;53.31
74621;BME280;64861;47.546;19.254;2023-05-07T12:22:02;99299.97;;;22.23;53.29
74621;BME280;64861;47.546;19.254;2023-05-07T12:24:28;99304.47;;;22.22;53.33
74621;BME280;64861;47.546;19.254;2023-05-07T12:26:54;99312.63;;;22.21;53.55
74621;BME280;64861;47.546;19.254;2023-05-07T12:29:22;99311.78;;;22.20;53.60
74621;BME280;64861;47.546;19.254;2023-05-07T12:31:49;99310.78;;;22.21;53.31
74621;BME280;64861;47.546;19.254;2023-05-07T12:34:15;99304.63;;;22.29;53.20
74621;BME280;64861;47.546;19.254;2023-05-07T12:36:40;99305.88;;;22.41;52.89
74621;BME280;64861;47.546;19.254;2023-05-07T12:39:06;99302.16;;;22.59;52.50
74621;BME280;64861;47.546;19.254;2023-05-07T12:41:57;99302.22;;;22.73;52.06
74621;BME280;64861;47.546;19.254;2023-05-07T12:44:32;99293.94;;;22.68;52.12
74621;BME280;64861;47.546;19.254;2023-05-07T12:49:23;99281.47;;;22.61;52.27
74621;BME280;64861;47.546;19.254;2023-05-07T12:51:50;99273.00;;;22.57;52.41
74621;BME280;64861;47.546;19.254;2023-05-07T12:54:32;99283.84;;;22.56;52.51
74621;BME280;64861;47.546;19.254;2023-05-07T12:57:05;99275.19;;;22.54;52.60
74621;BME280;64861;47.546;19.254;2023-05-07T12:59:40;99281.69;;;22.51;52.81
74621;BME280;64861;47.546;19.254;2023-05-07T13:02:07;99272.25;;;22.48;52.68
74621;BME280;64861;47.546;19.254;2023-05-07T13:04:33;99268.72;;;22.48;52.69
74621;BME280;64861;47.546;19.254;2023-05-07T13:06:59;99264.41;;;22.47;52.83
74621;BME280;64861;47.546;19.254;2023-05-07T13:09:25;99272.41;;;22.47;53.13
74621;BME280;64861;47.546;19.254;2023-05-07T13:11:50;99261.28;;;22.43;52.99
74621;BME280;64861;47.546;19.254;2023-05-07T13:14:16;99263.09;;;22.43;53.02